Time;durP1;ratioP1;P1;durP2;ratioP2;P2;SDS_P1;SDS_P2;PMS_P1;PMS_P2;Temp;Humidity;BMP_temperature;BMP_pressure;BME280_temperature;BME280_humidity;BME280_pressure;Samples;Min_cycle;Max_cycle;Signal;HPM_P1;HPM_P2
2022/09/23 00:02:16;;;;;;;8.20;5.18;;;7.70;99.90;;;7.56;100.00;99220.63;5062164;27;129604;-69
2022/09/23 00:04:45;;;;;;;8.52;5.43;;;7.70;99.90;;;7.61;100.00;99213.53;5061714;27;119699;-71
2022/09/23 00:07:15;;;;;;;8.82;5.65;;;7.70;99.90;;;7.52;100.00;99211.50;5057269;27;119738;-71
2022/09/23 00:09:44;;;;;;;10.05;5.70;;;7.70;99.90;;;7.60;100.00;99217.31;5041250;27;130441;-70
2022/09/23 00:12:12;;;;;;;9.15;5.78;;;7.70;99.90;;;7.68;100.00;99208.53;5041110;27;129534;-72
2022/09/23 00:14:41;;;;;;;10.65;6.25;;;7.70;99.90;;;7.70;100.00;99211.75;5044859;27;119341;-74
2022/09/23 00:17:10;;;;;;;9.38;5.80;;;7.70;99.90;;;7.68;100.00;99213.94;5042158;27;119360;-74
2022/09/23 00:19:40;;;;;;;10.82;6.30;;;7.70;99.90;;;7.64;100.00;99219.13;5009337;27;129214;-74
2022/09/23 00:22:08;;;;;;;9.82;6.15;;;7.70;99.90;;;7.64;100.00;99213.72;5039734;27;130154;-73
2022/09/23 00:24:39;;;;;;;9.57;6.18;;;7.70;99.90;;;7.67;100.00;99212.34;5040086;27;122413;-75
2022/09/23 00:27:07;;;;;;;10.35;6.30;;;7.70;99.90;;;7.61;100.00;99213.53;5040091;27;122733;-72
2022/09/23 00:29:36;;;;;;;11.23;6.22;;;7.70;99.90;;;7.55;100.00;99216.31;5025586;27;129684;-72
2022/09/23 00:32:05;;;;;;;10.35;5.78;;;7.70;99.90;;;7.62;100.00;99215.13;5025748;27;128175;-73
2022/09/23 00:34:33;;;;;;;11.32;5.78;;;7.80;99.90;;;7.67;100.00;99207.72;5026670;27;118486;-73
2022/09/23 00:37:02;;;;;;;9.57;6.35;;;7.70;99.90;;;7.58;100.00;99216.84;5041238;27;119803;-72
2022/09/23 00:39:30;;;;;;;9.32;6.00;;;7.70;99.90;;;7.49;100.00;99220.19;5042595;27;129562;-71
2022/09/23 00:42:00;;;;;;;8.02;6.00;;;7.70;99.90;;;7.49;100.00;99214.81;5026202;27;129214;-72
2022/09/23 00:44:45;;;;;;;9.40;6.00;;;7.70;99.90;;;7.53;100.00;99210.41;5041030;27;120037;-72
2022/09/23 00:47:19;;;;;;;9.23;6.40;;;7.70;99.90;;;7.54;100.00;99211.22;5026326;27;118866;-71
2022/09/23 00:50:00;;;;;;;11.15;6.45;;;7.70;99.90;;;7.59;100.00;99215.72;5039354;27;130357;-74
2022/09/23 00:52:31;;;;;;;10.73;6.15;;;7.70;99.90;;;7.62;100.00;99207.00;5040563;27;129777;-74
2022/09/23 00:55:03;;;;;;;10.68;6.15;;;7.70;99.90;;;7.45;100.00;99208.41;5026237;27;118292;-72
2022/09/23 00:57:36;;;;;;;11.93;7.60;;;7.70;99.90;;;7.52;100.00;99208.81;5040895;27;119394;-72
2022/09/23 01:00:07;;;;;;;8.77;5.90;;;7.70;99.90;;;7.40;100.00;99205.78;5039954;27;129870;-71
2022/09/23 01:02:38;;;;;;;10.45;6.50;;;7.70;99.90;;;7.37;100.00;99204.50;5041336;27;129394;-73
2022/09/23 01:05:08;;;;;;;12.30;7.05;;;7.70;99.90;;;7.45;100.00;99203.00;5040599;27;119128;-72
2022/09/23 01:07:37;;;;;;;10.43;7.13;;;7.70;99.90;;;7.54;100.00;99195.81;5040888;27;119408;-72
2022/09/23 01:10:08;;;;;;;11.02;6.88;;;7.70;99.90;;;7.49;100.00;99195.91;5040302;27;130013;-71
2022/09/23 01:13:04;;;;;;;11.43;7.30;;;7.70;99.90;;;7.47;100.00;99192.69;5025428;27;128999;-70
2022/09/23 01:15:43;;;;;;;14.55;8.57;;;7.70;99.90;;;7.43;100.00;99197.09;5039539;27;122034;-69
2022/09/23 01:18:26;;;;;;;14.68;8.75;;;7.70;99.90;;;7.36;100.00;99191.28;5040730;27;121801;-71
2022/09/23 01:21:13;;;;;;;13.20;9.23;;;7.60;99.90;;;7.47;100.00;99187.31;5025119;27;129519;-74
2022/09/23 01:24:26;;;;;;;14.60;10.25;;;7.70;99.90;;;7.47;100.00;99194.63;5040034;27;129918;-71
2022/09/23 01:27:10;;;;;;;16.83;11.85;;;7.60;99.90;;;7.40;100.00;99203.06;5040721;27;120095;-71
2022/09/23 01:30:18;;;;;;;15.55;10.73;;;7.60;99.90;;;7.51;100.00;99185.63;5040645;27;119323;-73
2022/09/23 01:33:10;;;;;;;;;;;7.70;99.90;;;7.54;100.00;99187.72;5040766;27;130051;-73
2022/09/23 01:35:59;;;;;;;15.15;9.73;;;7.60;99.90;;;7.58;100.00;99193.31;5040544;27;129766;-72
2022/09/23 01:38:39;;;;;;;15.45;11.40;;;7.60;99.90;;;7.54;100.00;99186.91;5040292;27;119573;-72
2022/09/23 01:41:31;;;;;;;17.85;11.88;;;7.60;99.90;;;7.56;100.00;99193.63;5040036;27;119863;-71
2022/09/23 01:44:08;;;;;;;16.38;9.55;;;7.60;99.90;;;7.50;100.00;99197.50;5038569;27;129929;-73
2022/09/23 01:46:49;;;;;;;16.45;10.63;;;7.60;99.90;;;7.47;100.00;99197.31;5039900;27;129337;-72
2022/09/23 01:49:26;;;;;;;11.55;8.38;;;7.60;99.90;;;7.37;100.00;99203.69;5024782;27;119507;-71
2022/09/23 01:52:04;;;;;;;13.77;9.27;;;7.60;99.90;;;7.34;100.00;99199.69;5040185;27;120037;-71
2022/09/23 01:54:38;;;;;;;10.32;8.25;;;7.60;99.90;;;7.38;100.00;99199.88;5024662;27;128906;-72
2022/09/23 01:57:14;;;;;;;12.40;8.05;;;7.60;99.90;;;7.35;100.00;99206.69;5039631;27;129531;-71
2022/09/23 01:59:49;;;;;;;12.88;7.90;;;7.60;99.90;;;7.34;100.00;99205.09;5040137;27;120614;-72
2022/09/23 02:02:27;;;;;;;11.63;7.57;;;7.60;99.90;;;7.41;100.00;99204.69;5041137;27;119836;-73
2022/09/23 02:05:04;;;;;;;10.68;7.22;;;7.60;99.90;;;7.34;100.00;99198.91;5039702;27;130317;-73
2022/09/23 02:07:40;;;;;;;10.68;6.85;;;7.60;99.90;;;7.33;100.00;99197.28;5024776;27;128747;-72
2022/09/23 02:10:16;;;;;;;10.30;7.40;;;7.60;99.90;;;7.34;100.00;99198.91;5023634;27;120845;-73
2022/09/23 02:12:48;;;;;;;11.60;7.83;;;7.60;99.90;;;7.43;100.00;99191.69;5040740;27;122376;-75
2022/09/23 02:15:23;;;;;;;12.90;7.53;;;7.60;99.90;;;7.43;100.00;99202.50;5043092;27;129969;-72
2022/09/23 02:17:58;;;;;;;12.73;7.40;;;7.60;99.90;;;7.36;100.00;99205.59;5043192;27;129505;-73
2022/09/23 02:20:33;;;;;;;11.43;7.47;;;7.60;99.90;;;7.36;100.00;99191.28;5028207;27;119192;-72
2022/09/23 02:23:08;;;;;;;11.65;7.82;;;7.60;99.90;;;7.43;100.00;99197.09;5043414;27;119396;-73
2022/09/23 02:25:46;;;;;;;12.05;7.40;;;7.60;99.90;;;7.42;100.00;99197.38;5042918;27;129913;-73
2022/09/23 02:28:24;;;;;;;13.77;7.40;;;7.60;99.90;;;7.37;100.00;99198.31;5043544;27;130039;-72
2022/09/23 02:31:06;;;;;;;11.75;7.43;;;7.60;99.90;;;7.29;100.00;99198.97;5043557;27;120198;-74
2022/09/23 02:33:41;;;;;;;13.98;8.40;;;7.60;99.90;;;7.29;100.00;99196.28;5043300;27;119421;-72
2022/09/23 02:36:22;;;;;;;11.45;7.80;;;7.60;99.90;;;7.26;100.00;99197.69;5041368;27;129746;-71
2022/09/23 02:38:56;;;;;;;13.10;8.40;;;7.60;99.90;;;7.34;100.00;99193.50;5041657;27;130050;-71
2022/09/23 02:41:32;;;;;;;12.75;7.95;;;7.60;99.90;;;7.45;100.00;99184.09;5042958;27;119858;-72
2022/09/23 02:44:06;;;;;;;10.90;7.43;;;7.60;99.90;;;7.51;100.00;99188.31;5043217;27;119562;-73
2022/09/23 02:46:35;;;;;;;12.10;8.00;;;7.60;99.90;;;7.42;100.00;99182.00;5042562;27;130282;-71
2022/09/23 02:49:10;;;;;;;11.52;8.02;;;7.60;99.90;;;7.49;100.00;99190.50;5042439;27;128991;-71
2022/09/23 02:51:40;;;;;;;10.63;7.57;;;7.60;99.90;;;7.49;100.00;99185.09;5044849;27;119416;-72
2022/09/23 02:54:14;;;;;;;12.93;8.38;;;7.60;99.90;;;7.40;100.00;99184.19;5043119;27;119486;-72
2022/09/23 02:56:43;;;;;;;10.25;7.40;;;7.60;99.90;;;7.36;100.00;99188.59;5027781;27;129013;-71
2022/09/23 02:59:13;;;;;;;11.25;7.90;;;7.60;99.90;;;7.40;100.00;99192.28;5042428;27;129581;-71
2022/09/23 03:01:59;;;;;;;12.05;8.07;;;7.60;99.90;;;7.37;100.00;99187.50;5040657;27;122577;-72
2022/09/23 03:04:37;;;;;;;14.25;8.18;;;7.60;99.90;;;7.30;100.00;99184.38;5042538;27;121833;-70
2022/09/23 03:07:17;;;;;;;11.93;8.73;;;7.60;99.90;;;7.31;100.00;99188.69;5042214;27;129996;-70
2022/09/23 03:09:57;;;;;;;11.80;8.73;;;7.60;99.90;;;7.25;100.00;99189.88;5042291;27;130328;-69
2022/09/23 03:12:36;;;;;;;10.52;7.63;;;7.50;99.90;;;7.31;100.00;99186.00;5024478;27;119606;-71
2022/09/23 03:15:25;;;;;;;10.68;8.00;;;7.60;99.90;;;7.39;100.00;99190.69;5027239;27;118870;-72
2022/09/23 03:18:07;;;;;;;12.20;8.82;;;7.60;99.90;;;7.28;100.00;99189.28;5042241;27;129953;-70
2022/09/23 03:20:43;;;;;;;13.88;9.02;;;7.50;99.90;;;7.30;100.00;99187.09;5042588;27;129458;-72
2022/09/23 03:23:18;;;;;;;12.40;8.07;;;7.50;99.90;;;7.20;100.00;99188.84;5026845;27;119200;-73
2022/09/23 03:25:52;;;;;;;10.77;8.13;;;7.50;99.90;;;7.19;100.00;99189.16;5042233;27;119420;-72
2022/09/23 03:28:24;;;;;;;12.68;8.27;;;7.50;99.90;;;7.30;100.00;99181.69;5040667;27;129830;-72
2022/09/23 03:30:54;;;;;;;11.40;8.63;;;7.50;99.90;;;7.27;100.00;99184.97;5027341;27;129160;-70
2022/09/23 03:33:27;;;;;;;10.52;8.00;;;7.50;99.90;;;7.26;100.00;99186.06;5042394;27;120024;-72
2022/09/23 03:39:02;;;;;;;14.27;8.88;;;7.60;99.90;;;7.39;100.00;99185.31;5017589;27;129936;-73
2022/09/23 03:41:36;;;;;;;13.70;8.73;;;7.60;99.90;;;7.28;100.00;99189.28;5041804;27;129333;-72
2022/09/23 03:44:07;;;;;;;13.18;8.57;;;7.50;99.90;;;7.23;100.00;99175.88;5042238;27;119349;-72
2022/09/23 03:46:36;;;;;;;11.73;8.60;;;7.50;99.90;;;7.28;100.00;99173.09;5032552;27;119072;-73
2022/09/23 03:49:14;;;;;;;12.10;8.57;;;7.60;99.90;;;7.30;100.00;99184.38;5046892;27;128730;-70
2022/09/23 03:51:42;;;;;;;12.20;8.68;;;7.60;99.90;;;7.27;100.00;99187.69;5062047;27;129926;-73
2022/09/23 03:54:12;;;;;;;12.77;8.45;;;7.50;99.90;;;7.30;100.00;99184.38;5061016;27;122302;-75
2022/09/23 03:56:41;;;;;;;12.25;8.65;;;7.50;99.90;;;7.31;100.00;99181.38;5062242;27;121926;-73
2022/09/23 03:59:09;;;;;;;13.20;8.98;;;7.50;99.90;;;7.26;100.00;99170.69;5062088;27;129865;-73
2022/09/23 04:01:38;;;;;;;12.77;8.93;;;7.50;99.90;;;7.37;100.00;99176.72;5061523;27;129860;-74
2022/09/23 04:04:07;;;;;;;11.50;8.10;;;7.50;99.90;;;7.35;100.00;99184.28;5043310;27;120087;-73
2022/09/23 04:06:36;;;;;;;13.10;8.80;;;7.50;99.90;;;7.33;100.00;99173.00;5061774;27;120822;-73
2022/09/23 04:09:04;;;;;;;13.85;9.98;;;7.60;99.90;;;7.31;100.00;99177.91;5043235;27;129924;-75
2022/09/23 04:11:35;;;;;;;13.52;9.98;;;7.60;99.90;;;7.41;100.00;99177.69;5060021;27;130085;-75
2022/09/23 04:14:06;;;;;;;16.50;10.48;;;7.60;99.90;;;7.44;100.00;99182.50;5061822;27;119733;-75
2022/09/23 04:16:35;;;;;;;14.55;9.95;;;7.60;99.90;;;7.51;100.00;99180.22;5046553;27;118862;-73
2022/09/23 04:19:05;;;;;;;14.38;9.85;;;7.60;99.90;;;7.37;100.00;99182.09;5060321;27;130376;-73
2022/09/23 04:21:33;;;;;;;12.68;8.93;;;7.60;99.90;;;7.41;100.00;99179.59;5043397;27;130001;-74
2022/09/23 04:24:02;;;;;;;16.70;10.13;;;7.60;99.90;;;7.53;100.00;99175.31;5061787;27;120606;-75
2022/09/23 04:26:32;;;;;;;13.63;10.02;;;7.60;99.90;;;7.66;100.00;99175.63;5061705;27;120350;-74
2022/09/23 04:29:03;;;;;;;12.93;10.10;;;7.70;99.90;;;7.68;100.00;99181.50;5046031;27;130251;-75
2022/09/23 04:31:32;;;;;;;15.32;9.75;;;7.70;99.90;;;7.54;100.00;99186.91;5061376;27;129442;-74
2022/09/23 04:34:01;;;;;;;13.35;10.15;;;7.60;99.90;;;7.62;100.00;99188.09;5061818;27;119592;-74
2022/09/23 04:36:30;;;;;;;14.27;9.70;;;7.60;99.90;;;7.55;100.00;99183.91;5061047;27;119688;-73
2022/09/23 04:38:58;;;;;;;14.13;9.05;;;7.60;99.90;;;7.63;100.00;99178.91;5060400;27;130542;-75
2022/09/23 04:41:27;;;;;;;12.98;9.27;;;7.60;99.90;;;7.67;100.00;99179.94;5061232;27;129487;-75
2022/09/23 04:43:56;;;;;;;12.63;9.18;;;7.60;99.90;;;7.71;100.00;99175.50;5060266;27;122103;-72
2022/09/23 04:46:26;;;;;;;11.50;8.52;;;7.60;99.90;;;7.84;100.00;99185.53;5045994;27;120730;-73
2022/09/23 04:48:56;;;;;;;11.32;7.75;;;7.70;99.90;;;7.83;100.00;99175.81;5042847;27;130044;-76
2022/09/23 04:51:27;;;;;;;11.10;7.75;;;7.70;99.90;;;7.91;100.00;99180.50;5021360;27;128699;-77
2022/09/23 04:53:56;;;;;;;10.65;8.23;;;7.70;99.90;;;7.62;100.00;99175.44;5056482;27;119603;-73
2022/09/23 04:56:27;;;;;;;10.77;7.95;;;7.60;99.90;;;7.51;100.00;99182.91;5059940;27;119884;-73
2022/09/23 04:58:57;;;;;;;10.75;7.65;;;7.60;99.90;;;7.44;100.00;99177.09;5060887;27;129875;-72
2022/09/23 05:01:30;;;;;;;11.40;7.72;;;7.60;99.90;;;7.54;100.00;99171.53;5061152;27;129834;-73
2022/09/23 05:04:02;;;;;;;9.73;7.28;;;7.60;99.90;;;7.61;100.00;99170.31;5043465;27;119628;-73
2022/09/23 05:06:31;;;;;;;10.48;7.65;;;7.60;99.90;;;7.54;100.00;99171.53;5040821;27;119432;-74
2022/09/23 05:09:01;;;;;;;11.25;7.32;;;7.60;99.90;;;7.52;100.00;99172.91;5038915;27;129918;-71
2022/09/23 05:11:31;;;;;;;9.43;6.75;;;7.70;99.90;;;7.66;100.00;99172.91;5034021;27;129787;-73
2022/09/23 05:14:02;;;;;;;9.07;6.38;;;7.70;99.90;;;7.63;100.00;99184.31;5037125;27;120172;-73
2022/09/23 05:16:32;;;;;;;10.25;7.35;;;7.70;99.90;;;7.58;100.00;99173.63;5037452;27;119414;-71
2022/09/23 05:19:01;;;;;;;9.90;7.03;;;7.70;99.90;;;7.54;100.00;99176.09;5038963;27;130126;-79
2022/09/23 05:21:30;;;;;;;9.13;6.65;;;7.70;99.90;;;7.64;100.00;99175.91;5043679;27;129537;-75
2022/09/23 05:23:59;;;;;;;11.18;7.05;;;7.70;99.90;;;7.70;100.00;99171.22;5022739;28;119737;-78
2022/09/23 05:26:31;;;;;;;11.38;7.18;;;7.70;99.90;;;7.70;100.00;99169.31;5024211;27;119698;-76
2022/09/23 05:29:00;;;;;;;8.73;6.10;;;7.70;99.90;;;7.67;100.00;99158.31;5019103;27;128902;-80
2022/09/23 05:31:31;;;;;;;8.73;6.55;;;7.80;99.90;;;7.74;100.00;99161.41;5038437;27;129473;-77
2022/09/23 05:34:02;;;;;;;9.32;6.38;;;7.80;99.90;;;7.91;100.00;99169.69;5035044;27;122005;-76
2022/09/23 05:36:36;;;;;;;9.80;5.93;;;7.90;99.90;;;7.68;100.00;99168.00;5033461;27;121656;-74
2022/09/23 05:39:06;;;;;;;9.65;5.78;;;7.90;99.90;;;7.82;100.00;99163.44;4990579;27;131065;-72
2022/09/23 05:41:34;;;;;;;7.85;5.72;;;7.90;99.90;;;7.96;100.00;99157.19;5039364;27;130007;-75
2022/09/23 05:44:03;;;;;;;8.43;5.80;;;8.00;99.90;;;7.91;100.00;99158.88;5040781;27;119899;-71
2022/09/23 05:46:33;;;;;;;11.00;5.72;;;7.90;99.90;;;7.90;100.00;99168.13;5039263;27;119276;-74
2022/09/23 05:49:04;;;;;;;8.68;5.93;;;7.90;99.90;;;8.04;100.00;99167.28;5024261;27;129994;-75
2022/09/23 05:51:34;;;;;;;8.65;5.50;;;8.10;99.90;;;8.03;100.00;99168.41;5021295;27;129797;-77
2022/09/23 05:54:05;;;;;;;9.52;7.32;;;8.00;99.90;;;8.14;100.00;99172.47;5038913;27;119666;-75
2022/09/23 05:56:36;;;;;;;12.65;6.65;;;8.10;99.90;;;8.04;100.00;99172.69;5024373;27;119458;-77
2022/09/23 05:59:06;;;;;;;8.57;5.45;;;8.00;99.90;;;8.19;100.00;99169.66;5037592;27;130233;-73
2022/09/23 06:01:37;;;;;;;9.25;5.72;;;8.10;99.90;;;8.01;100.00;99178.69;5006272;27;128386;-74
2022/09/23 06:04:08;;;;;;;8.07;5.75;;;8.00;99.90;;;8.14;100.00;99177.88;5058402;27;119511;-75
2022/09/23 06:06:48;;;;;;;7.65;5.22;;;8.10;99.90;;;8.33;100.00;99171.56;5061150;27;119621;-76
2022/09/23 06:09:17;;;;;;;8.20;5.43;;;8.20;99.90;;;8.08;100.00;99173.69;5056981;27;130429;-78
2022/09/23 06:11:46;;;;;;;8.20;5.13;;;8.10;99.90;;;8.29;100.00;99184.88;5058479;27;129557;-74
2022/09/23 06:14:15;;;;;;;10.45;5.57;;;8.20;99.90;;;8.25;100.00;99179.25;5058030;27;119808;-76
2022/09/23 06:16:44;;;;;;;7.95;5.20;;;8.20;99.90;;;8.12;100.00;99173.88;5058372;27;119561;-74
2022/09/23 06:19:13;;;;;;;8.40;5.32;;;8.20;99.90;;;8.18;100.00;99184.31;5060592;27;131833;-71
2022/09/23 06:21:42;;;;;;;8.43;5.57;;;8.20;99.90;;;8.20;100.00;99184.00;5059501;27;129823;-77
2022/09/23 06:24:10;;;;;;;8.32;5.15;;;8.20;99.90;;;8.22;100.00;99184.47;5058775;27;122173;-77
2022/09/23 06:26:39;;;;;;;8.52;5.40;;;8.30;99.90;;;8.12;100.00;99179.28;5059506;27;121802;-72
2022/09/23 06:29:11;;;;;;;9.35;4.90;;;8.30;99.90;;;8.27;100.00;99182.47;5059363;27;130039;-72
2022/09/23 06:31:40;;;;;;;7.78;5.30;;;8.40;99.90;;;8.39;100.00;99189.25;5043903;27;128962;-75
2022/09/23 06:34:14;;;;;;;8.75;5.30;;;8.40;99.90;;;8.39;100.00;99190.06;5060071;27;119122;-75
2022/09/23 06:36:43;;;;;;;9.25;5.85;;;8.40;99.90;;;8.49;100.00;99194.44;5060210;27;119514;-75
2022/09/23 06:39:12;;;;;;;7.43;5.32;;;8.50;99.90;;;8.36;100.00;99185.25;5059130;27;130570;-75
2022/09/23 06:41:41;;;;;;;7.28;5.18;;;8.40;99.90;;;8.39;100.00;99189.25;5059148;27;130033;-74
2022/09/23 06:44:13;;;;;;;7.72;4.80;;;8.40;99.90;;;8.55;100.00;99187.81;5044551;27;118426;-75
2022/09/23 06:46:42;;;;;;;7.57;5.78;;;8.50;99.90;;;8.78;100.00;99179.75;5059921;27;119411;-77
2022/09/23 06:49:12;;;;;;;8.15;5.28;;;8.70;99.90;;;8.84;100.00;99181.22;5058193;27;130021;-72
2022/09/23 06:51:41;;;;;;;7.65;5.20;;;8.60;99.90;;;8.82;100.00;99186.16;5059278;27;129844;-75
2022/09/23 06:54:10;;;;;;;8.93;4.97;;;8.60;99.90;;;8.76;100.00;99192.78;5059475;27;119768;-72
2022/09/23 06:56:39;;;;;;;10.10;5.25;;;8.60;99.90;;;8.94;100.00;99189.09;5059497;27;119959;-74
2022/09/23 06:59:11;;;;;;;10.63;5.93;;;8.80;99.90;;;8.97;100.00;99193.09;5060624;27;130477;-75
2022/09/23 07:01:40;;;;;;;10.13;5.00;;;8.90;99.90;;;8.96;100.00;99200.41;5047298;27;129397;-73
2022/09/23 07:04:09;;;;;;;8.25;5.45;;;8.80;99.90;;;8.91;100.00;99197.84;5062677;27;119941;-74
2022/09/23 07:06:39;;;;;;;7.75;4.72;;;8.80;99.90;;;8.86;100.00;99192.53;5047893;27;118703;-74
2022/09/23 07:09:09;;;;;;;6.50;4.57;;;8.70;99.90;;;8.63;100.00;99195.22;5056725;27;129840;-76
2022/09/23 07:11:39;;;;;;;8.38;5.47;;;8.70;99.90;;;8.61;100.00;99191.22;5055712;27;130237;-71
2022/09/23 07:14:07;;;;;;;9.30;6.07;;;8.60;99.90;;;8.78;100.00;99195.97;5006203;27;121288;-75
2022/09/23 07:16:36;;;;;;;9.63;6.25;;;8.80;99.90;;;8.87;100.00;99188.72;5061021;27;122483;-73
2022/09/23 07:19:04;;;;;;;9.20;5.72;;;8.80;99.90;;;8.96;100.00;99196.88;5063280;27;130045;-75
2022/09/23 07:21:33;;;;;;;17.05;7.63;;;8.90;99.90;;;9.14;100.00;99192.41;5060963;27;129268;-76
2022/09/23 07:24:03;;;;;;;8.00;5.18;;;9.00;99.90;;;9.09;100.00;99200.66;5054465;27;119472;-78
2022/09/23 07:26:32;;;;;;;7.78;5.15;;;8.90;99.90;;;9.05;100.00;99188.84;5043871;27;119239;-76
2022/09/23 07:29:04;;;;;;;9.02;5.88;;;8.90;99.90;;;9.13;100.00;99190.78;5059657;27;130261;-75
2022/09/23 07:31:34;;;;;;;7.10;5.00;;;9.00;99.90;;;9.08;100.00;99188.22;5033353;27;129524;-73
2022/09/23 07:34:04;;;;;;;7.70;5.07;;;8.90;99.90;;;8.77;100.00;99189.78;5046978;27;119842;-77
2022/09/23 07:36:36;;;;;;;8.75;5.30;;;8.70;99.90;;;8.96;100.00;99186.06;5047772;27;119313;-78
2022/09/23 07:39:06;;;;;;;7.75;5.05;;;9.00;99.90;;;9.19;100.00;99181.44;5043215;27;130410;-74
2022/09/23 07:41:36;;;;;;;6.93;4.95;;;9.00;99.90;;;9.25;100.00;99182.13;5058856;27;129525;-77
2022/09/23 07:44:05;;;;;;;7.05;4.75;;;9.10;99.90;;;9.25;100.00;99182.91;5052345;27;120148;-76
2022/09/23 07:46:36;;;;;;;6.93;4.82;;;9.00;99.90;;;9.57;100.00;99183.72;5047510;27;119391;-81
2022/09/23 07:49:05;;;;;;;7.75;5.03;;;9.20;99.90;;;9.74;100.00;99182.16;5061528;27;129755;-78
2022/09/23 07:51:37;;;;;;;7.18;4.75;;;9.40;99.90;;;9.64;100.00;99188.66;5043616;27;129749;-80
2022/09/23 07:54:12;;;;;;;7.13;5.13;;;9.20;99.90;;;9.41;100.00;99191.44;5031806;27;119108;-77
2022/09/23 07:56:41;;;;;;;7.32;4.35;;;9.10;99.90;;;9.33;100.00;99187.59;5040904;27;118404;-73
2022/09/23 07:59:14;;;;;;;5.82;3.80;;;9.20;99.90;;;9.56;100.00;99186.72;5047914;27;129911;-77
2022/09/23 08:01:47;;;;;;;4.97;2.80;;;9.40;99.90;;;9.88;100.00;99182.88;5044337;27;130002;-78
2022/09/23 08:04:19;;;;;;;6.35;3.25;;;9.50;99.90;;;10.13;100.00;99185.94;5043430;27;120689;-74
2022/09/23 08:06:50;;;;;;;4.10;2.50;;;9.70;99.90;;;10.05;100.00;99191.03;5045406;27;121229;-79
2022/09/23 08:09:22;;;;;;;5.25;2.78;;;9.70;99.90;;;10.05;100.00;99191.03;5059977;27;130538;-77
2022/09/23 08:11:52;;;;;;;4.93;2.75;;;9.80;99.90;;;9.51;100.00;99195.78;5059456;27;129832;-72
2022/09/23 08:14:22;;;;;;;4.78;2.88;;;9.40;99.90;;;9.58;100.00;99196.13;5043380;27;119601;-76
2022/09/23 08:16:51;;;;;;;5.03;2.75;;;9.50;99.90;;;9.44;100.00;99200.84;5045440;27;117951;-72
2022/09/23 08:19:19;;;;;;;4.47;3.05;;;9.40;99.90;;;9.52;100.00;99200.09;5042881;27;128616;-71
2022/09/23 08:21:51;;;;;;;4.32;2.55;;;9.40;99.90;;;9.49;100.00;99193.41;5048193;27;128794;-78
2022/09/23 08:24:25;;;;;;;5.70;2.97;;;9.40;99.90;;;9.87;100.00;99197.53;5045221;27;118844;-77
2022/09/23 08:26:55;;;;;;;4.70;2.60;;;9.70;99.90;;;10.15;100.00;99197.28;5047763;27;119014;-72
2022/09/23 08:29:25;;;;;;;4.28;2.33;;;9.80;97.40;;;10.07;100.00;99191.53;5061117;27;129477;-76
2022/09/23 08:31:55;;;;;;;4.55;2.70;;;9.80;90.00;;;10.51;100.00;99193.53;5062349;27;130096;-77
2022/09/23 08:34:27;;;;;;;4.10;2.50;;;10.10;91.60;;;10.47;100.00;99189.84;5057176;27;119670;-77
2022/09/23 08:36:56;;;;;;;4.93;2.03;;;10.00;89.30;;;10.54;100.00;99187.47;5035571;27;118311;-76
2022/09/23 08:39:26;;;;;;;3.63;2.05;;;10.00;89.40;;;10.51;100.00;99188.91;5040564;27;129957;-74
2022/09/23 08:42:12;;;;;;;3.63;2.20;;;10.10;73.90;;;10.89;99.74;99192.88;5059924;27;129556;-76
2022/09/23 08:44:49;;;;;;;3.10;1.70;;;10.30;76.60;;;11.04;96.25;99192.38;5060825;27;119839;-75
2022/09/23 08:47:27;;;;;;;4.78;2.38;;;10.50;50.00;;;10.79;98.16;99178.53;5042768;27;118738;-76
2022/09/23 08:50:06;;;;;;;3.90;2.38;;;10.30;63.20;;;10.61;100.00;99185.06;5040061;27;129901;-74
2022/09/23 08:52:50;;;;;;;4.22;2.20;;;10.10;89.50;;;10.52;100.00;99190.50;5049934;27;129589;-75
2022/09/23 08:55:27;;;;;;;5.18;2.03;;;10.20;63.60;;;10.58;100.00;99188.41;5056892;27;121861;-74
2022/09/23 08:58:08;;;;;;;3.85;2.30;;;10.10;80.90;;;10.43;100.00;99182.34;5059792;27;122703;-74
2022/09/23 09:00:43;;;;;;;4.25;2.20;;;10.00;72.70;;;10.36;100.00;99179.34;5058477;27;130840;-73
2022/09/23 09:03:23;;;;;;;5.55;2.40;;;10.00;85.30;;;10.76;100.00;99179.16;5027525;27;128778;-74
2022/09/23 09:05:53;;;;;;;3.55;2.28;;;10.30;89.60;;;10.81;99.07;99180.13;5060905;27;119796;-75
2022/09/23 09:08:30;;;;;;;5.32;2.40;;;10.30;71.10;;;10.91;99.15;99185.25;5028548;27;118578;-77
2022/09/23 09:11:04;;;;;;;4.38;2.50;;;10.30;72.60;;;11.03;100.00;99176.41;5062501;27;103759;-75
2022/09/23 09:13:42;;;;;;;3.80;2.30;;;10.40;74.50;;;11.33;98.77;99180.03;5058236;27;129394;-77
2022/09/23 09:16:45;;;;;;;4.57;2.50;;;10.70;73.20;;;11.26;97.06;99175.09;5061070;27;119496;-76
2022/09/23 09:19:21;;;;;;;3.90;2.55;;;10.60;61.10;;;10.85;100.00;99175.66;5059531;27;119490;-75
2022/09/23 09:21:54;;;;;;;3.97;2.40;;;10.30;89.60;;;10.54;100.00;99182.06;5057652;27;129572;-75
2022/09/23 09:24:33;;;;;;;4.45;2.75;;;10.10;98.10;;;10.57;100.00;99181.41;5059535;27;129427;-73
2022/09/23 09:27:11;;;;;;;5.63;3.30;;;10.10;99.90;;;10.62;100.00;99178.53;5039790;27;118806;-74
2022/09/23 09:29:45;;;;;;;6.15;3.63;;;10.10;99.90;;;10.92;100.00;99176.78;5026662;27;120485;-74
2022/09/23 09:32:24;;;;;;;5.60;3.25;;;10.30;99.90;;;10.72;100.00;99172.78;5031352;27;129793;-71
2022/09/23 09:34:58;;;;;;;5.93;3.00;;;10.10;99.90;;;10.99;100.00;99176.28;5037895;27;128664;-78
2022/09/23 09:37:34;;;;;;;5.18;3.40;;;10.40;94.50;;;10.85;100.00;99175.66;5043628;27;119094;-77
2022/09/23 09:40:03;;;;;;;5.30;3.10;;;10.30;99.90;;;10.66;100.00;99174.06;5060091;27;119821;-75
2022/09/23 09:42:39;;;;;;;7.32;4.10;;;10.10;99.90;;;10.61;100.00;99171.50;5059707;27;130278;-76
2022/09/23 09:45:18;;;;;;;4.83;3.30;;;10.10;99.90;;;9.98;100.00;99174.44;5058617;27;129493;-74
2022/09/23 09:48:01;;;;;;;5.78;3.22;;;9.60;99.90;;;10.37;100.00;99167.34;5055808;27;122057;-78
2022/09/23 09:50:49;;;;;;;5.47;3.08;;;9.90;99.90;;;10.43;100.00;99176.94;5049654;27;121829;-73
2022/09/23 09:53:25;;;;;;;6.32;3.30;;;10.00;99.90;;;10.15;100.00;99170.19;5031296;27;130376;-75
2022/09/23 09:56:02;;;;;;;6.60;3.83;;;9.80;99.90;;;10.16;100.00;99177.19;5025088;27;129943;-78
2022/09/23 09:58:42;;;;;;;5.97;3.42;;;9.80;99.90;;;10.23;100.00;99181.03;5056597;27;119805;-78
2022/09/23 10:01:20;;;;;;;4.95;3.38;;;9.90;99.90;;;10.29;100.00;99175.47;5024138;27;119178;-74
2022/09/23 10:03:52;;;;;;;5.72;3.22;;;10.00;99.90;;;10.46;100.00;99180.13;5028417;27;130788;-80
2022/09/23 10:06:24;;;;;;;5.43;3.30;;;10.10;99.90;;;11.03;100.00;99171.81;5041606;27;129205;-75
2022/09/23 10:09:12;;;;;;;5.15;3.40;;;10.50;99.90;;;11.07;100.00;99172.75;5042088;27;118462;-79
2022/09/23 10:11:42;;;;;;;4.47;2.90;;;10.30;94.80;;;11.08;100.00;99174.34;5048601;27;119484;-78
2022/09/23 10:14:17;;;;;;;5.32;3.05;;;10.40;89.80;;;11.06;99.99;99179.28;5057308;27;130293;-79
2022/09/23 10:17:01;;;;;;;6.68;3.15;;;10.40;84.40;;;11.19;98.44;99168.56;5023900;27;128259;-73
2022/09/23 10:19:31;;;;;;;7.68;2.92;;;10.50;69.70;;;10.99;99.81;99168.13;5047929;27;120153;-72
2022/09/23 10:22:04;;;;;;;4.55;2.92;;;10.40;81.20;;;10.87;100.00;99171.50;5012038;27;119307;-72
2022/09/23 10:24:35;;;;;;;4.53;2.83;;;10.40;93.80;;;10.87;100.00;99167.97;5036538;27;129320;-74
2022/09/23 10:27:07;;;;;;;5.07;3.13;;;10.30;94.40;;;10.31;100.00;99168.59;5054517;27;129650;-72
2022/09/23 10:29:49;;;;;;;4.53;2.90;;;10.00;99.90;;;10.46;100.00;99169.28;5031333;27;119572;-71
2022/09/23 10:32:26;;;;;;;5.38;3.42;;;10.10;99.90;;;10.14;100.00;99168.56;5057864;27;119277;-71
2022/09/23 10:35:02;;;;;;;5.70;3.53;;;9.90;99.90;;;10.22;100.00;99165.06;5060519;27;130508;-76
2022/09/23 10:37:38;;;;;;;6.60;3.33;;;10.00;99.90;;;10.28;100.00;99163.78;5040352;27;130270;-77
2022/09/23 10:46:41;;;;;;;6.93;3.53;;;9.80;99.90;;;10.19;100.00;99161.09;5025699;27;130076;-73
2022/09/23 10:49:55;;;;;;;5.68;3.50;;;10.00;99.90;;;10.23;100.00;99166.66;5029830;27;129485;-79